createdAt,value
2016-06-25T00:00:23.522Z,1009.92
2016-06-25T00:01:23.517Z,1009.91
2016-06-25T00:02:23.519Z,1009.91
2016-06-25T00:03:23.522Z,1009.88
2016-06-25T00:04:23.526Z,1009.89
2016-06-25T00:05:23.525Z,1009.87
2016-06-25T00:06:23.531Z,1009.87
2016-06-25T00:07:23.531Z,1009.87
2016-06-25T00:08:23.535Z,1009.87
2016-06-25T00:09:23.541Z,1009.85
2016-06-25T00:10:23.541Z,1009.85
2016-06-25T00:11:23.549Z,1009.86
2016-06-25T00:12:23.543Z,1009.83
2016-06-25T00:13:23.547Z,1009.88
2016-06-25T00:14:23.544Z,1009.81
2016-06-25T00:15:23.551Z,1009.84
2016-06-25T00:16:23.553Z,1009.83
2016-06-25T00:17:23.806Z,1009.79
2016-06-25T00:18:23.558Z,1009.78
2016-06-25T00:19:23.561Z,1009.78
2016-06-25T00:20:23.561Z,1009.74
2016-06-25T00:21:23.564Z,1009.76
2016-06-25T00:22:23.570Z,1009.74
2016-06-25T00:23:23.567Z,1009.73
2016-06-25T00:24:23.574Z,1009.72
2016-06-25T00:25:23.574Z,1009.69
2016-06-25T00:26:23.574Z,1009.67
2016-06-25T00:28:24.192Z,1009.68
2016-06-25T00:29:23.582Z,1009.69
2016-06-25T00:30:24.226Z,1009.67
2016-06-25T00:31:23.594Z,1009.63
2016-06-25T00:32:23.587Z,1009.67
2016-06-25T00:33:23.648Z,1009.66
2016-06-25T00:34:23.599Z,1009.64
2016-06-25T00:35:23.597Z,1009.6
2016-06-25T00:36:23.605Z,1009.63
2016-06-25T00:37:24.920Z,1009.61
2016-06-25T00:38:25.232Z,1009.64
2016-06-25T00:39:23.606Z,1009.59
2016-06-25T00:40:23.608Z,1009.6
2016-06-25T00:41:23.612Z,1009.58
2016-06-25T00:42:23.841Z,1009.56
2016-06-25T00:43:23.615Z,1009.55
2016-06-25T00:44:23.701Z,1009.52
2016-06-25T00:45:23.619Z,1009.51
2016-06-25T00:46:23.618Z,1009.55
2016-06-25T00:47:24.325Z,1009.54
2016-06-25T00:48:23.621Z,1009.5
2016-06-25T00:49:23.629Z,1009.47
2016-06-25T00:50:23.625Z,1009.44
2016-06-25T00:51:23.932Z,1009.44
2016-06-25T00:52:23.636Z,1009.41
2016-06-25T00:53:23.637Z,1009.43
2016-06-25T00:54:24.739Z,1009.42
2016-06-25T00:55:23.636Z,1009.4
2016-06-25T00:56:23.643Z,1009.42
2016-06-25T00:57:23.640Z,1009.41
2016-06-25T00:58:23.649Z,1009.4
2016-06-25T00:59:23.651Z,1009.39
2016-06-25T01:00:23.651Z,1009.35
2016-06-25T01:01:23.654Z,1009.34
2016-06-25T01:02:23.657Z,1009.36
2016-06-25T01:03:23.666Z,1009.33
2016-06-25T01:04:23.658Z,1009.34
2016-06-25T01:05:23.659Z,1009.33
2016-06-25T01:06:23.660Z,1009.35
2016-06-25T01:07:23.662Z,1009.34
2016-06-25T01:08:23.665Z,1009.32
2016-06-25T01:09:23.669Z,1009.28
2016-06-25T01:10:23.684Z,1009.26
2016-06-25T01:11:23.678Z,1009.27
2016-06-25T01:12:23.669Z,1009.29
2016-06-25T01:13:23.673Z,1009.27
2016-06-25T01:14:23.680Z,1009.24
2016-06-25T01:15:23.683Z,1009.28
2016-06-25T01:16:23.681Z,1009.23
2016-06-25T01:17:23.684Z,1009.23
2016-06-25T01:18:23.693Z,1009.21
2016-06-25T01:19:23.683Z,1009.21
2016-06-25T01:20:23.692Z,1009.16
2016-06-25T01:21:23.686Z,1009.16
2016-06-25T01:22:23.693Z,1009.1
2016-06-25T01:23:23.745Z,1009.1
2016-06-25T01:24:23.695Z,1009.06
2016-06-25T01:25:23.698Z,1009.08
2016-06-25T01:26:23.698Z,1009.07
2016-06-25T01:27:23.704Z,1009.04
2016-06-25T01:28:23.705Z,1009.02
2016-06-25T01:29:23.708Z,1008.95
2016-06-25T01:30:23.707Z,1008.96
2016-06-25T01:31:23.709Z,1008.94
2016-06-25T01:32:23.709Z,1008.9
2016-06-25T01:33:23.716Z,1008.84
2016-06-25T01:34:23.715Z,1008.88
2016-06-25T01:35:23.721Z,1008.88
2016-06-25T01:36:23.722Z,1008.86
2016-06-25T01:37:23.722Z,1008.85
2016-06-25T01:38:23.719Z,1008.82
2016-06-25T01:39:23.723Z,1008.82
2016-06-25T01:40:23.726Z,1008.79
2016-06-25T01:41:23.728Z,1008.8
2016-06-25T01:42:23.731Z,1008.78
2016-06-25T01:43:23.767Z,1008.81
2016-06-25T01:44:23.741Z,1008.82
2016-06-25T01:45:23.734Z,1008.82
2016-06-25T01:46:24.067Z,1008.85
2016-06-25T01:47:25.240Z,1008.88
2016-06-25T01:48:23.752Z,1008.83
2016-06-25T01:49:23.743Z,1008.85
2016-06-25T01:50:23.744Z,1008.86
2016-06-25T01:51:23.748Z,1008.86
2016-06-25T01:52:23.752Z,1008.86
2016-06-25T01:53:23.747Z,1008.8
2016-06-25T01:54:23.753Z,1008.82
2016-06-25T01:55:25.145Z,1008.81
2016-06-25T01:56:23.750Z,1008.77
2016-06-25T01:57:25.103Z,1008.73
2016-06-25T01:58:24.971Z,1008.76
2016-06-25T01:59:23.763Z,1008.72
2016-06-25T02:00:23.762Z,1008.68
2016-06-25T02:01:23.767Z,1008.69
2016-06-25T02:02:23.764Z,1008.72
2016-06-25T02:03:24.018Z,1008.65
2016-06-25T02:04:24.272Z,1008.67
2016-06-25T02:05:23.785Z,1008.67
2016-06-25T02:06:23.775Z,1008.63
2016-06-25T02:07:23.781Z,1008.64
2016-06-25T02:08:23.773Z,1008.66
2016-06-25T02:09:23.781Z,1008.64
2016-06-25T02:10:23.790Z,1008.65
2016-06-25T02:11:23.887Z,1008.64
2016-06-25T02:12:24.431Z,1008.64
2016-06-25T02:13:23.787Z,1008.65
2016-06-25T02:14:23.789Z,1008.62
2016-06-25T02:15:23.789Z,1008.66
2016-06-25T02:16:24.339Z,1008.72
2016-06-25T02:17:23.894Z,1008.67
2016-06-25T02:18:23.791Z,1008.63
2016-06-25T02:19:23.798Z,1008.67
2016-06-25T02:20:23.798Z,1008.6
2016-06-25T02:21:23.798Z,1008.6
2016-06-25T02:22:23.802Z,1008.57
2016-06-25T02:23:23.805Z,1008.6
2016-06-25T02:24:23.807Z,1008.59
2016-06-25T02:25:23.810Z,1008.61
2016-06-25T02:26:23.804Z,1008.57
2016-06-25T02:27:23.812Z,1008.59
2016-06-25T02:28:23.819Z,1008.59
2016-06-25T02:29:23.814Z,1008.57
2016-06-25T02:30:23.814Z,1008.53
2016-06-25T02:31:23.822Z,1008.52
2016-06-25T02:32:23.820Z,1008.51
2016-06-25T02:33:23.817Z,1008.49
2016-06-25T02:34:23.840Z,1008.53
2016-06-25T02:35:23.829Z,1008.53
2016-06-25T02:36:23.825Z,1008.52
2016-06-25T02:37:23.825Z,1008.46
2016-06-25T02:38:23.835Z,1008.48
2016-06-25T02:39:23.834Z,1008.48
2016-06-25T02:40:23.831Z,1008.5
2016-06-25T02:41:23.835Z,1008.43
2016-06-25T02:42:23.836Z,1008.42
2016-06-25T02:43:23.836Z,1008.41
2016-06-25T02:44:23.844Z,1008.39
2016-06-25T02:45:23.839Z,1008.38
2016-06-25T02:46:23.850Z,1008.38
2016-06-25T02:47:23.842Z,1008.36
2016-06-25T02:48:23.843Z,1008.34
2016-06-25T02:49:23.848Z,1008.35
2016-06-25T02:50:23.850Z,1008.36
2016-06-25T02:51:23.849Z,1008.36
2016-06-25T02:52:23.849Z,1008.4
2016-06-25T02:53:23.858Z,1008.36
2016-06-25T02:54:23.889Z,1008.36
2016-06-25T02:55:23.852Z,1008.32
2016-06-25T02:56:23.859Z,1008.33
2016-06-25T02:57:23.859Z,1008.31
2016-06-25T02:58:23.862Z,1008.32
2016-06-25T02:59:23.860Z,1008.33
2016-06-25T03:00:23.861Z,1008.33
2016-06-25T03:01:23.864Z,1008.33
2016-06-25T03:02:23.870Z,1008.34
2016-06-25T03:03:23.869Z,1008.35
2016-06-25T03:04:23.872Z,1008.37
2016-06-25T03:05:23.870Z,1008.33
2016-06-25T03:06:25.286Z,1008.35
2016-06-25T03:07:23.874Z,1008.38
2016-06-25T03:08:23.879Z,1008.36
2016-06-25T03:09:23.879Z,1008.38
2016-06-25T03:10:23.883Z,1008.33
2016-06-25T03:11:23.887Z,1008.37
2016-06-25T03:12:23.886Z,1008.37
2016-06-25T03:13:23.888Z,1008.33
2016-06-25T03:14:23.891Z,1008.35
2016-06-25T03:15:23.892Z,1008.32
2016-06-25T03:16:23.893Z,1008.35
2016-06-25T03:17:23.966Z,1008.32
2016-06-25T03:18:23.897Z,1008.32
2016-06-25T03:19:23.957Z,1008.29
2016-06-25T03:20:23.914Z,1008.37
2016-06-25T03:21:23.944Z,1008.3
2016-06-25T03:22:23.973Z,1008.3
2016-06-25T03:23:23.908Z,1008.27
2016-06-25T03:24:23.910Z,1008.32
2016-06-25T03:25:23.909Z,1008.22
2016-06-25T03:26:23.912Z,1008.25
2016-06-25T03:27:23.922Z,1008.22
2016-06-25T03:28:23.923Z,1008.23
2016-06-25T03:29:23.920Z,1008.21
2016-06-25T03:30:23.929Z,1008.2
2016-06-25T03:31:24.271Z,1008.21
2016-06-25T03:32:24.587Z,1008.2
2016-06-25T03:33:23.931Z,1008.22
2016-06-25T03:34:23.931Z,1008.19
2016-06-25T03:35:23.936Z,1008.25
2016-06-25T03:36:23.936Z,1008.28
2016-06-25T03:37:23.940Z,1008.3
2016-06-25T03:38:23.947Z,1008.32
2016-06-25T03:39:23.942Z,1008.36
2016-06-25T03:40:23.949Z,1008.36
2016-06-25T03:41:23.954Z,1008.31
2016-06-25T03:42:23.957Z,1008.35
2016-06-25T03:43:23.957Z,1008.29
2016-06-25T03:44:23.971Z,1008.29
2016-06-25T03:45:23.965Z,1008.34
2016-06-25T03:46:23.970Z,1008.28
2016-06-25T03:47:23.975Z,1008.26
2016-06-25T03:48:23.980Z,1008.33
2016-06-25T03:49:23.989Z,1008.25
2016-06-25T03:50:23.990Z,1008.23
2016-06-25T03:51:23.999Z,1008.29
2016-06-25T03:52:24.001Z,1008.24
2016-06-25T03:53:24.005Z,1008.27
2016-06-25T03:54:24.011Z,1008.29
2016-06-25T03:55:24.021Z,1008.29
2016-06-25T03:56:24.021Z,1008.3
2016-06-25T03:57:24.041Z,1008.34
2016-06-25T03:58:24.033Z,1008.32
2016-06-25T03:59:24.045Z,1008.31
2016-06-25T04:00:24.050Z,1008.32
2016-06-25T04:01:24.053Z,1008.28
2016-06-25T04:02:24.056Z,1008.26
2016-06-25T04:03:24.065Z,1008.26
2016-06-25T04:04:24.074Z,1008.24
2016-06-25T04:05:24.077Z,1008.26
2016-06-25T04:06:24.089Z,1008.31
2016-06-25T04:07:24.092Z,1008.26
2016-06-25T04:08:24.101Z,1008.26
2016-06-25T04:09:24.135Z,1008.26
2016-06-25T04:10:24.112Z,1008.28
2016-06-25T04:11:24.118Z,1008.31
2016-06-25T04:12:24.129Z,1008.3
2016-06-25T04:13:24.134Z,1008.29
2016-06-25T04:14:24.150Z,1008.25
2016-06-25T04:15:24.152Z,1008.29
2016-06-25T04:16:24.166Z,1008.33
2016-06-25T04:17:24.422Z,1008.3
2016-06-25T04:18:24.185Z,1008.35
2016-06-25T04:19:24.187Z,1008.35
2016-06-25T04:20:24.195Z,1008.32
2016-06-25T04:21:24.217Z,1008.32
2016-06-25T04:22:24.214Z,1008.36
2016-06-25T04:23:24.222Z,1008.36
2016-06-25T04:24:24.232Z,1008.37
2016-06-25T04:25:24.247Z,1008.36
2016-06-25T04:26:24.248Z,1008.34
2016-06-25T04:27:24.259Z,1008.31
2016-06-25T04:28:24.272Z,1008.33
2016-06-25T04:29:24.280Z,1008.33
2016-06-25T04:30:24.295Z,1008.31
2016-06-25T04:31:24.299Z,1008.27
2016-06-25T04:32:24.316Z,1008.25
2016-06-25T04:33:24.322Z,1008.24
2016-06-25T04:34:24.331Z,1008.22
2016-06-25T04:35:24.342Z,1008.24
2016-06-25T04:36:24.355Z,1008.21
2016-06-25T04:37:24.362Z,1008.22
2016-06-25T04:38:24.379Z,1008.24
2016-06-25T04:39:24.383Z,1008.2
2016-06-25T04:40:24.418Z,1008.2
2016-06-25T04:41:24.407Z,1008.23
2016-06-25T04:42:24.422Z,1008.24
2016-06-25T04:43:24.430Z,1008.3
2016-06-25T04:44:24.445Z,1008.27
2016-06-25T04:45:25.005Z,1008.27
2016-06-25T04:46:24.619Z,1008.28
2016-06-25T04:47:24.481Z,1008.26
2016-06-25T04:48:24.489Z,1008.18
2016-06-25T04:49:24.951Z,1008.19
2016-06-25T04:50:24.515Z,1008.24
2016-06-25T04:51:24.670Z,1008.21
2016-06-25T04:52:25.191Z,1008.22
2016-06-25T04:53:24.546Z,1008.23
2016-06-25T04:54:24.567Z,1008.22
2016-06-25T04:55:24.577Z,1008.21
2016-06-25T04:56:24.584Z,1008.21
2016-06-25T04:57:24.604Z,1008.23
2016-06-25T04:58:24.613Z,1008.24
2016-06-25T04:59:24.621Z,1008.25
2016-06-25T05:00:24.636Z,1008.27
2016-06-25T05:01:24.658Z,1008.31
2016-06-25T05:02:24.658Z,1008.28
2016-06-25T05:03:24.674Z,1008.33
2016-06-25T05:04:24.686Z,1008.28
2016-06-25T05:05:24.699Z,1008.27
2016-06-25T05:06:24.711Z,1008.29
2016-06-25T05:07:24.723Z,1008.29
2016-06-25T05:08:24.736Z,1008.29
2016-06-25T05:09:24.753Z,1008.28
2016-06-25T05:10:24.765Z,1008.27
2016-06-25T05:11:24.772Z,1008.26
2016-06-25T05:12:24.788Z,1008.24
2016-06-25T05:13:24.817Z,1008.23
2016-06-25T05:14:24.818Z,1008.24
2016-06-25T05:15:24.831Z,1008.2
2016-06-25T05:16:24.846Z,1008.15
2016-06-25T05:17:24.856Z,1008.14
2016-06-25T05:18:24.869Z,1008.16
2016-06-25T05:19:24.884Z,1008.12
2016-06-25T05:20:24.903Z,1008.08
2016-06-25T05:21:24.911Z,1008.08
2016-06-25T05:22:24.929Z,1008.06
2016-06-25T05:23:24.943Z,1008.09
2016-06-25T05:24:24.956Z,1008.07
2016-06-25T05:25:24.975Z,1008.1
2016-06-25T05:26:24.987Z,1008.1
2016-06-25T05:27:24.999Z,1008.09
2016-06-25T05:28:25.014Z,1008.06
2016-06-25T05:29:25.029Z,1008.05
2016-06-25T05:30:25.045Z,1008.1
2016-06-25T05:31:25.058Z,1008.11
2016-06-25T05:32:25.075Z,1008.1
2016-06-25T05:33:25.092Z,1008.08
2016-06-25T05:34:25.103Z,1008.11
2016-06-25T05:35:25.118Z,1008.08
2016-06-25T05:36:25.138Z,1008.11
2016-06-25T05:37:25.154Z,1008.06
2016-06-25T05:38:25.170Z,1008.1
2016-06-25T05:39:25.184Z,1008.08
2016-06-25T05:40:25.199Z,1008.04
2016-06-25T05:42:25.230Z,1008.01
2016-06-25T05:43:25.246Z,1008.03
2016-06-25T05:44:25.265Z,1008.03
2016-06-25T05:45:25.283Z,1008.03
2016-06-25T05:46:25.292Z,1007.97
2016-06-25T05:47:25.316Z,1007.93
2016-06-25T05:48:25.505Z,1007.96
2016-06-25T05:49:25.352Z,1007.94
2016-06-25T05:50:25.360Z,1007.93
2016-06-25T05:51:25.386Z,1007.89
2016-06-25T05:52:25.398Z,1007.86
2016-06-25T05:53:25.547Z,1007.89
2016-06-25T05:54:25.430Z,1007.91
2016-06-25T05:55:25.448Z,1007.9
2016-06-25T05:56:25.465Z,1007.91
2016-06-25T05:57:25.476Z,1007.98
2016-06-25T05:58:25.501Z,1007.97
2016-06-25T05:59:26.228Z,1007.97
2016-06-25T06:00:25.533Z,1007.95
2016-06-25T06:01:25.900Z,1007.96
2016-06-25T06:02:25.572Z,1007.96
2016-06-25T06:03:25.587Z,1007.91
2016-06-25T06:04:25.605Z,1007.89
2016-06-25T06:05:25.616Z,1007.9
2016-06-25T06:06:25.643Z,1007.9
2016-06-25T06:07:25.659Z,1007.83
2016-06-25T06:08:25.673Z,1007.85
2016-06-25T06:09:25.692Z,1007.86
2016-06-25T06:10:25.719Z,1007.9
2016-06-25T06:11:25.731Z,1007.85
2016-06-25T06:12:25.745Z,1007.85
2016-06-25T06:13:25.770Z,1007.84
2016-06-25T06:14:25.782Z,1007.84
2016-06-25T06:15:25.802Z,1007.82
2016-06-25T06:16:25.817Z,1007.81
2016-06-25T06:17:26.039Z,1007.79
2016-06-25T06:18:25.856Z,1007.78
2016-06-25T06:19:25.871Z,1007.84
2016-06-25T06:20:25.892Z,1007.8
2016-06-25T06:21:25.912Z,1007.83
2016-06-25T06:22:25.925Z,1007.92
2016-06-25T06:23:25.951Z,1007.91
2016-06-25T06:24:25.962Z,1007.9
2016-06-25T06:25:25.990Z,1007.92
2016-06-25T06:26:26.002Z,1007.94
2016-06-25T06:27:26.021Z,1007.93
2016-06-25T06:28:26.043Z,1007.94
2016-06-25T06:29:26.062Z,1007.92
2016-06-25T06:30:26.085Z,1007.89
2016-06-25T06:31:26.101Z,1007.91
2016-06-25T06:32:26.115Z,1007.88
2016-06-25T06:33:26.142Z,1007.86
2016-06-25T06:34:26.154Z,1007.84
2016-06-25T06:35:26.174Z,1007.84
2016-06-25T06:36:26.191Z,1007.83
2016-06-25T06:37:26.216Z,1007.84
2016-06-25T06:38:26.230Z,1007.8
2016-06-25T06:39:26.250Z,1007.8
2016-06-25T06:40:26.268Z,1007.77
2016-06-25T06:41:26.288Z,1007.77
2016-06-25T06:42:26.309Z,1007.8
2016-06-25T06:43:26.330Z,1007.8
2016-06-25T06:44:26.348Z,1007.82
2016-06-25T06:45:26.372Z,1007.82
2016-06-25T06:46:26.390Z,1007.79
2016-06-25T06:47:26.405Z,1007.81
2016-06-25T06:48:26.428Z,1007.82
2016-06-25T06:49:26.450Z,1007.86
2016-06-25T06:50:26.474Z,1007.82
2016-06-25T06:51:26.482Z,1007.83
2016-06-25T06:52:26.506Z,1007.83
2016-06-25T06:53:26.520Z,1007.87
2016-06-25T06:54:26.546Z,1007.87
2016-06-25T06:55:26.563Z,1007.89
2016-06-25T06:56:26.581Z,1007.89
2016-06-25T06:57:26.608Z,1007.83
2016-06-25T06:58:26.621Z,1007.83
2016-06-25T06:59:26.646Z,1007.85
2016-06-25T07:00:26.661Z,1007.88
2016-06-25T07:01:26.680Z,1007.82
2016-06-25T07:02:26.726Z,1007.83
2016-06-25T07:03:26.720Z,1007.87
2016-06-25T07:04:26.739Z,1007.91
2016-06-25T07:05:26.885Z,1007.98
2016-06-25T07:06:26.773Z,1007.94
2016-06-25T07:07:26.795Z,1007.98
2016-06-25T07:08:26.812Z,1007.98
2016-06-25T07:09:27.173Z,1007.94
2016-06-25T07:10:27.957Z,1007.96
2016-06-25T07:11:26.870Z,1007.88
2016-06-25T07:12:26.895Z,1007.95
2016-06-25T07:13:26.907Z,1007.97
2016-06-25T07:14:27.377Z,1007.99
2016-06-25T07:15:26.947Z,1007.92
2016-06-25T07:16:26.965Z,1007.94
2016-06-25T07:17:28.034Z,1007.92
2016-06-25T07:18:28.107Z,1007.91
2016-06-25T07:19:27.025Z,1007.9
2016-06-25T07:20:27.046Z,1007.81
2016-06-25T07:21:27.063Z,1007.79
2016-06-25T07:22:27.177Z,1007.88
2016-06-25T07:23:27.103Z,1007.88
2016-06-25T07:24:27.217Z,1007.89
2016-06-25T07:25:27.143Z,1007.88
2016-06-25T07:26:27.159Z,1007.92
2016-06-25T07:27:27.181Z,1007.98
2016-06-25T07:28:27.200Z,1007.99
2016-06-25T07:29:27.216Z,1008.02
2016-06-25T07:30:27.237Z,1008.06
2016-06-25T07:31:27.251Z,1008.12
2016-06-25T07:32:27.274Z,1008.13
2016-06-25T07:33:27.293Z,1008.19
2016-06-25T07:34:27.312Z,1008.18
2016-06-25T07:35:27.338Z,1008.17
2016-06-25T07:36:27.350Z,1008.12
2016-06-25T07:37:27.373Z,1008.1
2016-06-25T07:38:27.390Z,1008.11
2016-06-25T07:39:27.410Z,1008.18
2016-06-25T07:40:27.451Z,1008.11
2016-06-25T07:41:27.460Z,1008.13
2016-06-25T07:42:27.469Z,1008.18
2016-06-25T07:43:27.487Z,1008.12
2016-06-25T07:44:27.506Z,1008.14
2016-06-25T07:45:27.532Z,1008.1
2016-06-25T07:46:27.546Z,1008.08
2016-06-25T07:47:27.570Z,1008.04
2016-06-25T07:48:27.587Z,1008
2016-06-25T07:49:27.608Z,1007.96
2016-06-25T07:50:27.635Z,1007.93
2016-06-25T07:51:27.647Z,1007.92
2016-06-25T07:52:27.669Z,1007.88
2016-06-25T07:53:27.688Z,1008.02
2016-06-25T07:54:27.730Z,1008.04
2016-06-25T07:55:27.724Z,1008.16
2016-06-25T07:56:27.750Z,1008.27
2016-06-25T07:57:27.772Z,1008.43
2016-06-25T07:58:27.784Z,1008.56
2016-06-25T07:59:27.802Z,1008.76
2016-06-25T08:00:27.823Z,1008.8
2016-06-25T08:01:27.844Z,1008.87
2016-06-25T08:02:27.870Z,1008.87
2016-06-25T08:03:27.889Z,1008.85
2016-06-25T08:04:27.906Z,1008.81
2016-06-25T08:05:27.927Z,1008.84
2016-06-25T08:06:27.950Z,1008.94
2016-06-25T08:07:27.970Z,1008.98
2016-06-25T08:08:27.995Z,1009.09
2016-06-25T08:09:28.015Z,1009.15
2016-06-25T08:10:28.039Z,1009.2
2016-06-25T08:11:28.058Z,1009.18
2016-06-25T08:12:28.075Z,1008.97
2016-06-25T08:13:28.088Z,1008.99
2016-06-25T08:14:28.115Z,1009.03
2016-06-25T08:15:28.133Z,1008.94
2016-06-25T08:16:28.168Z,1008.81
2016-06-25T08:17:28.322Z,1008.8
2016-06-25T08:18:28.191Z,1008.76
2016-06-25T08:19:28.215Z,1008.68
2016-06-25T08:20:28.233Z,1008.67
2016-06-25T08:21:28.255Z,1008.6
2016-06-25T08:22:28.276Z,1008.52
2016-06-25T08:23:28.314Z,1008.5
2016-06-25T08:24:28.320Z,1008.42
2016-06-25T08:25:28.347Z,1008.38
2016-06-25T08:26:28.365Z,1008.35
2016-06-25T08:27:28.384Z,1008.25
2016-06-25T08:28:28.395Z,1008.19
2016-06-25T08:29:29.182Z,1008.07
2016-06-25T08:30:29.562Z,1007.91
2016-06-25T08:31:28.461Z,1007.83
2016-06-25T08:32:28.474Z,1007.79
2016-06-25T08:33:28.496Z,1007.78
2016-06-25T08:34:28.747Z,1007.73
2016-06-25T08:36:28.555Z,1007.69
2016-06-25T08:37:28.929Z,1007.66
2016-06-25T08:38:28.593Z,1007.64
2016-06-25T08:39:28.615Z,1007.58
2016-06-25T08:40:28.647Z,1007.58
2016-06-25T08:41:28.658Z,1007.53
2016-06-25T08:42:28.975Z,1007.51
2016-06-25T08:43:28.702Z,1007.52
2016-06-25T08:44:28.717Z,1007.54
2016-06-25T08:45:29.540Z,1007.56
2016-06-25T08:46:28.910Z,1007.54
2016-06-25T08:47:28.778Z,1007.54
2016-06-25T08:48:28.796Z,1007.49
2016-06-25T08:49:28.818Z,1007.51
2016-06-25T08:50:28.838Z,1007.55
2016-06-25T08:51:28.862Z,1007.58
2016-06-25T08:52:28.879Z,1007.6
2016-06-25T08:53:28.902Z,1007.56
2016-06-25T08:54:28.922Z,1007.56
2016-06-25T08:55:28.941Z,1007.33
2016-06-25T08:56:28.957Z,1006.99
2016-06-25T08:57:28.982Z,1006.86
2016-06-25T08:58:29.013Z,1006.8
2016-06-25T08:59:29.019Z,1006.82
2016-06-25T09:00:29.043Z,1006.81
2016-06-25T09:01:29.059Z,1006.74
2016-06-25T09:02:29.076Z,1006.7
2016-06-25T09:03:29.101Z,1006.73
2016-06-25T09:04:29.119Z,1006.7
2016-06-25T09:05:29.132Z,1006.65
2016-06-25T09:06:29.162Z,1006.68
2016-06-25T09:07:29.167Z,1006.62
2016-06-25T09:08:29.189Z,1006.63
2016-06-25T09:09:29.206Z,1006.6
2016-06-25T09:10:29.221Z,1006.59
2016-06-25T09:11:29.236Z,1006.61
2016-06-25T09:12:29.257Z,1006.64
2016-06-25T09:13:29.270Z,1006.61
2016-06-25T09:14:29.286Z,1006.64
2016-06-25T09:15:29.302Z,1006.59
2016-06-25T09:16:29.322Z,1006.55
2016-06-25T09:17:29.434Z,1006.54
2016-06-25T09:18:29.357Z,1006.5
2016-06-25T09:19:29.363Z,1006.48
2016-06-25T09:20:29.381Z,1006.53
2016-06-25T09:21:29.393Z,1006.49
2016-06-25T09:22:29.410Z,1006.46
2016-06-25T09:23:29.423Z,1006.45
2016-06-25T09:24:29.435Z,1006.42
2016-06-25T09:25:29.446Z,1006.38
2016-06-25T09:26:29.456Z,1006.37
2016-06-25T09:27:29.481Z,1006.52
2016-06-25T09:28:29.486Z,1006.5
2016-06-25T09:29:29.497Z,1006.45
2016-06-25T09:30:29.518Z,1006.47
2016-06-25T09:31:29.532Z,1006.48
2016-06-25T09:32:29.552Z,1006.5
2016-06-25T09:33:29.549Z,1006.48
2016-06-25T09:34:29.569Z,1006.43
2016-06-25T09:35:29.577Z,1006.36
2016-06-25T09:36:29.590Z,1006.35
2016-06-25T09:37:30.289Z,1006.28
2016-06-25T09:38:29.663Z,1006.29
2016-06-25T09:39:30.858Z,1006.25
2016-06-25T09:40:29.634Z,1006.22
2016-06-25T09:41:29.654Z,1006.24
2016-06-25T09:42:29.660Z,1006.18
2016-06-25T09:43:29.663Z,1006.15
2016-06-25T09:44:29.682Z,1006.21
2016-06-25T09:45:29.692Z,1006.19
2016-06-25T09:46:29.703Z,1006.2
2016-06-25T09:47:29.711Z,1006.14
2016-06-25T09:48:29.751Z,1006.19
2016-06-25T09:49:29.739Z,1006.18
2016-06-25T09:50:29.754Z,1006.2
2016-06-25T09:51:29.762Z,1006.2
2016-06-25T09:52:29.772Z,1006.16
2016-06-25T09:53:30.033Z,1006.17
2016-06-25T09:54:29.793Z,1006.13
2016-06-25T09:55:29.805Z,1006.14
2016-06-25T09:56:30.519Z,1006.14
2016-06-25T09:57:29.829Z,1006.1
2016-06-25T09:58:29.898Z,1006.12
2016-06-25T09:59:29.853Z,1006.13
2016-06-25T10:00:29.860Z,1006.16
2016-06-25T10:01:29.875Z,1006.16
2016-06-25T10:02:29.890Z,1006.12
2016-06-25T10:03:29.895Z,1006.1
2016-06-25T10:04:29.911Z,1006.07
2016-06-25T10:05:30.319Z,1006.07
2016-06-25T10:06:29.933Z,1006.04
2016-06-25T10:08:29.951Z,1005.97
2016-06-25T10:09:29.963Z,1005.99
2016-06-25T10:10:29.973Z,1006.01
2016-06-25T10:11:29.981Z,1005.97
2016-06-25T10:12:29.995Z,1005.95
2016-06-25T10:13:30.009Z,1006.06
2016-06-25T10:14:30.016Z,1006.05
2016-06-25T10:15:30.031Z,1006.02
2016-06-25T10:16:30.039Z,1005.99
2016-06-25T10:17:30.064Z,1005.99
2016-06-25T10:18:30.064Z,1005.93
2016-06-25T10:19:30.088Z,1006.11
2016-06-25T10:20:30.087Z,1006.21
2016-06-25T10:21:30.097Z,1006.03
2016-06-25T10:22:30.119Z,1005.92
2016-06-25T10:23:30.127Z,1005.98
2016-06-25T10:24:30.137Z,1005.89
2016-06-25T10:25:30.143Z,1005.92
2016-06-25T10:26:30.153Z,1006
2016-06-25T10:27:30.163Z,1005.98
2016-06-25T10:28:30.176Z,1006.01
2016-06-25T10:29:30.218Z,1006.04
2016-06-25T10:30:30.200Z,1005.96
2016-06-25T10:31:30.208Z,1005.72
2016-06-25T10:32:30.222Z,1005.77
2016-06-25T10:33:30.243Z,1005.84
2016-06-25T10:34:30.252Z,1005.94
2016-06-25T10:35:30.262Z,1006.02
2016-06-25T10:36:30.268Z,1006.05
2016-06-25T10:37:30.278Z,1005.84
2016-06-25T10:38:30.292Z,1005.89
2016-06-25T10:39:30.307Z,1006.06
2016-06-25T10:40:30.312Z,1005.91
2016-06-25T10:41:30.328Z,1005.93
2016-06-25T10:42:30.338Z,1005.81
2016-06-25T10:43:30.350Z,1005.87
2016-06-25T10:44:30.362Z,1005.88
2016-06-25T10:45:30.378Z,1005.65
2016-06-25T10:46:30.386Z,1005.58
2016-06-25T10:47:30.398Z,1005.58
2016-06-25T10:48:30.405Z,1005.54
2016-06-25T10:49:30.422Z,1005.67
2016-06-25T10:50:30.435Z,1005.67
2016-06-25T10:51:30.448Z,1005.65
2016-06-25T10:52:30.462Z,1005.59
2016-06-25T10:53:30.473Z,1005.56
2016-06-25T10:54:30.484Z,1005.6
2016-06-25T10:56:30.506Z,1005.5
2016-06-25T10:57:30.706Z,1005.55
2016-06-25T10:58:30.531Z,1005.59
2016-06-25T10:59:31.007Z,1005.7
2016-06-25T11:00:30.557Z,1005.63
2016-06-25T11:01:30.566Z,1005.61
2016-06-25T11:02:30.577Z,1005.75
2016-06-25T11:03:30.590Z,1005.71
2016-06-25T11:04:30.603Z,1005.63
2016-06-25T11:05:31.026Z,1005.77
2016-06-25T11:06:30.641Z,1005.71
2016-06-25T11:07:30.635Z,1005.54
2016-06-25T11:08:31.208Z,1005.5
2016-06-25T11:09:30.665Z,1005.47
2016-06-25T11:10:30.673Z,1005.44
2016-06-25T11:11:30.689Z,1005.3
2016-06-25T11:12:31.278Z,1005.33
2016-06-25T11:13:30.732Z,1005.39
2016-06-25T11:14:31.082Z,1005.33
2016-06-25T11:15:31.035Z,1005.25
2016-06-25T11:16:30.753Z,1005.23
2016-06-25T11:17:31.509Z,1005.26
2016-06-25T11:18:30.775Z,1005.34
2016-06-25T11:19:30.785Z,1005.14
2016-06-25T11:20:30.817Z,1005.15
2016-06-25T11:21:30.807Z,1005.04
2016-06-25T11:22:30.818Z,1005.11
2016-06-25T11:23:30.831Z,1005.2
2016-06-25T11:24:30.847Z,1005.3
2016-06-25T11:25:30.854Z,1005.35
2016-06-25T11:26:30.868Z,1005.38
2016-06-25T11:27:30.880Z,1005.35
2016-06-25T11:28:30.907Z,1005.35
2016-06-25T11:29:30.906Z,1005.39
2016-06-25T11:30:30.911Z,1005.31
2016-06-25T11:31:30.931Z,1005.26
2016-06-25T11:32:30.944Z,1005.41
2016-06-25T11:33:30.954Z,1005.31
2016-06-25T11:34:30.956Z,1005.17
2016-06-25T11:35:30.974Z,1005.15
2016-06-25T11:36:30.986Z,1005.1
2016-06-25T11:37:30.992Z,1005.01
2016-06-25T11:38:31.008Z,1005.14
2016-06-25T11:39:31.016Z,1005.12
2016-06-25T11:40:31.029Z,1005.13
2016-06-25T11:41:31.040Z,1005.07
2016-06-25T11:42:31.052Z,1004.81
2016-06-25T11:43:31.065Z,1004.76
2016-06-25T11:44:31.082Z,1004.73
2016-06-25T11:45:31.094Z,1004.69
2016-06-25T11:46:31.098Z,1004.62
2016-06-25T11:47:31.113Z,1004.59
2016-06-25T11:48:31.123Z,1004.53
2016-06-25T11:49:31.139Z,1004.42
2016-06-25T11:50:31.147Z,1004.36
2016-06-25T11:51:31.157Z,1004.4
2016-06-25T11:52:31.171Z,1004.36
2016-06-25T11:53:31.193Z,1004.34
2016-06-25T11:54:31.193Z,1004.33
2016-06-25T11:55:31.206Z,1004.33
2016-06-25T11:56:31.217Z,1004.3
2016-06-25T11:57:31.230Z,1004.23
2016-06-25T11:58:31.239Z,1004.18
2016-06-25T11:59:31.253Z,1004.12
2016-06-25T12:00:31.271Z,1004.1
2016-06-25T12:01:31.274Z,1004.01
2016-06-25T12:02:31.290Z,1004.16
2016-06-25T12:03:31.302Z,1004.29
2016-06-25T12:04:31.306Z,1004.25
2016-06-25T12:05:31.323Z,1004.24
2016-06-25T12:06:31.339Z,1004.02
2016-06-25T12:07:31.343Z,1003.78
2016-06-25T12:08:31.367Z,1003.7
2016-06-25T12:09:31.374Z,1003.64
2016-06-25T12:10:31.381Z,1003.6
2016-06-25T12:11:31.397Z,1003.63
2016-06-25T12:12:31.407Z,1003.56
2016-06-25T12:13:31.414Z,1003.61